sensor_id;sensor_type;location;lat;lon;timestamp;P1;durP1;ratioP1;P2;durP2;ratioP2
71806;SDS011;59655;42.590;23.364;2024-03-17T00:00:16;21.35;;;10.98;;
71806;SDS011;59655;42.590;23.364;2024-03-17T00:02:43;18.17;;;10.60;;
71806;SDS011;59655;42.590;23.364;2024-03-17T00:05:09;21.17;;;10.45;;
71806;SDS011;59655;42.590;23.364;2024-03-17T00:07:35;18.05;;;10.70;;
71806;SDS011;59655;42.590;23.364;2024-03-17T00:10:00;17.92;;;9.77;;
71806;SDS011;59655;42.590;23.364;2024-03-17T00:12:25;20.17;;;11.32;;
71806;SDS011;59655;42.590;23.364;2024-03-17T00:14:51;18.85;;;10.18;;
71806;SDS011;59655;42.590;23.364;2024-03-17T00:17:16;20.52;;;10.65;;
71806;SDS011;59655;42.590;23.364;2024-03-17T00:19:42;19.65;;;10.88;;
71806;SDS011;59655;42.590;23.364;2024-03-17T00:22:07;19.58;;;10.57;;
71806;SDS011;59655;42.590;23.364;2024-03-17T00:24:34;22.42;;;11.63;;
71806;SDS011;59655;42.590;23.364;2024-03-17T00:27:03;22.33;;;12.30;;
71806;SDS011;59655;42.590;23.364;2024-03-17T00:29:28;23.70;;;13.77;;
71806;SDS011;59655;42.590;23.364;2024-03-17T00:31:54;32.17;;;14.43;;
71806;SDS011;59655;42.590;23.364;2024-03-17T00:34:20;23.08;;;13.60;;
71806;SDS011;59655;42.590;23.364;2024-03-17T00:36:45;23.05;;;13.00;;
71806;SDS011;59655;42.590;23.364;2024-03-17T00:39:11;25.13;;;13.20;;
71806;SDS011;59655;42.590;23.364;2024-03-17T00:41:36;22.75;;;12.93;;
71806;SDS011;59655;42.590;23.364;2024-03-17T00:44:02;26.38;;;13.70;;
71806;SDS011;59655;42.590;23.364;2024-03-17T00:46:28;25.00;;;13.55;;
71806;SDS011;59655;42.590;23.364;2024-03-17T00:48:53;32.75;;;15.48;;
71806;SDS011;59655;42.590;23.364;2024-03-17T00:51:19;38.63;;;17.00;;
71806;SDS011;59655;42.590;23.364;2024-03-17T00:53:44;38.33;;;17.08;;
71806;SDS011;59655;42.590;23.364;2024-03-17T00:56:10;37.45;;;16.05;;
71806;SDS011;59655;42.590;23.364;2024-03-17T00:58:35;30.23;;;14.13;;
71806;SDS011;59655;42.590;23.364;2024-03-17T01:01:01;30.35;;;14.30;;
71806;SDS011;59655;42.590;23.364;2024-03-17T01:03:26;32.13;;;13.85;;
71806;SDS011;59655;42.590;23.364;2024-03-17T01:08:20;24.90;;;11.60;;
71806;SDS011;59655;42.590;23.364;2024-03-17T01:10:46;24.02;;;12.35;;
71806;SDS011;59655;42.590;23.364;2024-03-17T01:13:16;31.30;;;14.45;;
71806;SDS011;59655;42.590;23.364;2024-03-17T01:15:42;30.92;;;16.83;;
71806;SDS011;59655;42.590;23.364;2024-03-17T01:18:08;37.38;;;19.50;;
71806;SDS011;59655;42.590;23.364;2024-03-17T01:20:36;33.65;;;18.70;;
71806;SDS011;59655;42.590;23.364;2024-03-17T01:23:03;32.65;;;18.77;;
71806;SDS011;59655;42.590;23.364;2024-03-17T01:25:28;22.63;;;11.95;;
71806;SDS011;59655;42.590;23.364;2024-03-17T01:27:57;18.25;;;9.68;;
71806;SDS011;59655;42.590;23.364;2024-03-17T01:30:23;17.88;;;10.30;;
71806;SDS011;59655;42.590;23.364;2024-03-17T01:32:49;18.83;;;10.43;;
71806;SDS011;59655;42.590;23.364;2024-03-17T01:35:16;19.02;;;10.95;;
71806;SDS011;59655;42.590;23.364;2024-03-17T01:37:41;17.58;;;10.07;;
71806;SDS011;59655;42.590;23.364;2024-03-17T01:40:07;21.67;;;10.77;;
71806;SDS011;59655;42.590;23.364;2024-03-17T01:42:34;20.58;;;11.35;;
71806;SDS011;59655;42.590;23.364;2024-03-17T01:45:00;20.08;;;11.23;;
71806;SDS011;59655;42.590;23.364;2024-03-17T01:47:25;22.20;;;11.90;;
71806;SDS011;59655;42.590;23.364;2024-03-17T01:49:51;20.05;;;10.85;;
71806;SDS011;59655;42.590;23.364;2024-03-17T01:52:17;23.10;;;11.60;;
71806;SDS011;59655;42.590;23.364;2024-03-17T01:57:11;22.27;;;11.10;;
71806;SDS011;59655;42.590;23.364;2024-03-17T01:59:37;23.95;;;12.32;;
71806;SDS011;59655;42.590;23.364;2024-03-17T02:02:05;26.05;;;13.68;;
71806;SDS011;59655;42.590;23.364;2024-03-17T02:04:30;26.23;;;13.95;;
71806;SDS011;59655;42.590;23.364;2024-03-17T02:06:56;26.75;;;14.02;;
71806;SDS011;59655;42.590;23.364;2024-03-17T02:09:21;25.45;;;14.07;;
71806;SDS011;59655;42.590;23.364;2024-03-17T02:11:47;25.52;;;14.07;;
71806;SDS011;59655;42.590;23.364;2024-03-17T02:14:12;24.00;;;13.98;;
71806;SDS011;59655;42.590;23.364;2024-03-17T02:16:39;25.35;;;14.18;;
71806;SDS011;59655;42.590;23.364;2024-03-17T02:19:05;23.27;;;12.10;;
71806;SDS011;59655;42.590;23.364;2024-03-17T02:21:30;22.38;;;11.88;;
71806;SDS011;59655;42.590;23.364;2024-03-17T02:23:56;26.15;;;13.40;;
71806;SDS011;59655;42.590;23.364;2024-03-17T02:26:22;24.13;;;13.18;;
71806;SDS011;59655;42.590;23.364;2024-03-17T02:28:50;22.17;;;12.00;;
71806;SDS011;59655;42.590;23.364;2024-03-17T02:31:16;20.20;;;10.10;;
71806;SDS011;59655;42.590;23.364;2024-03-17T02:33:42;22.15;;;11.10;;
71806;SDS011;59655;42.590;23.364;2024-03-17T02:36:09;21.88;;;11.82;;
71806;SDS011;59655;42.590;23.364;2024-03-17T02:38:36;24.88;;;11.98;;
71806;SDS011;59655;42.590;23.364;2024-03-17T02:41:21;23.83;;;11.70;;
71806;SDS011;59655;42.590;23.364;2024-03-17T02:43:47;26.45;;;12.70;;
71806;SDS011;59655;42.590;23.364;2024-03-17T02:46:13;20.27;;;12.23;;
71806;SDS011;59655;42.590;23.364;2024-03-17T02:48:39;20.27;;;11.02;;
71806;SDS011;59655;42.590;23.364;2024-03-17T02:51:15;23.95;;;14.30;;
71806;SDS011;59655;42.590;23.364;2024-03-17T02:53:43;21.42;;;11.98;;
71806;SDS011;59655;42.590;23.364;2024-03-17T02:56:10;23.48;;;11.98;;
71806;SDS011;59655;42.590;23.364;2024-03-17T02:58:36;27.17;;;14.02;;
71806;SDS011;59655;42.590;23.364;2024-03-17T03:01:05;25.45;;;12.15;;
71806;SDS011;59655;42.590;23.364;2024-03-17T03:03:31;25.20;;;11.65;;
71806;SDS011;59655;42.590;23.364;2024-03-17T03:05:57;26.20;;;11.85;;
71806;SDS011;59655;42.590;23.364;2024-03-17T03:08:23;26.88;;;12.38;;
71806;SDS011;59655;42.590;23.364;2024-03-17T03:10:49;21.92;;;10.75;;
71806;SDS011;59655;42.590;23.364;2024-03-17T03:13:14;22.50;;;10.52;;
71806;SDS011;59655;42.590;23.364;2024-03-17T03:15:39;24.58;;;11.38;;
71806;SDS011;59655;42.590;23.364;2024-03-17T03:18:05;24.17;;;12.43;;
71806;SDS011;59655;42.590;23.364;2024-03-17T03:20:30;22.20;;;11.85;;
71806;SDS011;59655;42.590;23.364;2024-03-17T03:22:55;27.00;;;12.55;;
71806;SDS011;59655;42.590;23.364;2024-03-17T03:25:21;23.00;;;11.95;;
71806;SDS011;59655;42.590;23.364;2024-03-17T03:27:46;33.63;;;16.13;;
71806;SDS011;59655;42.590;23.364;2024-03-17T03:30:12;31.15;;;15.00;;
71806;SDS011;59655;42.590;23.364;2024-03-17T03:32:37;23.67;;;11.68;;
71806;SDS011;59655;42.590;23.364;2024-03-17T03:35:04;24.98;;;13.32;;
71806;SDS011;59655;42.590;23.364;2024-03-17T03:37:30;18.67;;;10.38;;
71806;SDS011;59655;42.590;23.364;2024-03-17T03:39:56;21.38;;;9.48;;
71806;SDS011;59655;42.590;23.364;2024-03-17T03:42:22;16.30;;;8.98;;
71806;SDS011;59655;42.590;23.364;2024-03-17T03:44:48;19.45;;;9.85;;
71806;SDS011;59655;42.590;23.364;2024-03-17T03:47:14;16.05;;;9.13;;
71806;SDS011;59655;42.590;23.364;2024-03-17T03:49:40;16.65;;;8.98;;
71806;SDS011;59655;42.590;23.364;2024-03-17T03:52:05;17.75;;;10.15;;
71806;SDS011;59655;42.590;23.364;2024-03-17T03:54:30;22.13;;;10.85;;
71806;SDS011;59655;42.590;23.364;2024-03-17T03:56:56;23.58;;;12.13;;
71806;SDS011;59655;42.590;23.364;2024-03-17T03:59:21;19.02;;;9.82;;
71806;SDS011;59655;42.590;23.364;2024-03-17T04:01:47;26.98;;;13.02;;
71806;SDS011;59655;42.590;23.364;2024-03-17T04:04:14;20.00;;;10.50;;
71806;SDS011;59655;42.590;23.364;2024-03-17T04:06:39;17.40;;;10.00;;
71806;SDS011;59655;42.590;23.364;2024-03-17T04:09:05;17.85;;;9.23;;
71806;SDS011;59655;42.590;23.364;2024-03-17T04:11:32;21.75;;;10.80;;
71806;SDS011;59655;42.590;23.364;2024-03-17T04:13:58;17.85;;;10.00;;
71806;SDS011;59655;42.590;23.364;2024-03-17T04:16:25;19.45;;;11.65;;
71806;SDS011;59655;42.590;23.364;2024-03-17T04:18:51;25.65;;;14.55;;
71806;SDS011;59655;42.590;23.364;2024-03-17T04:21:16;20.63;;;12.43;;
71806;SDS011;59655;42.590;23.364;2024-03-17T04:23:42;21.88;;;11.98;;
71806;SDS011;59655;42.590;23.364;2024-03-17T04:26:07;24.40;;;12.40;;
71806;SDS011;59655;42.590;23.364;2024-03-17T04:28:33;35.63;;;15.40;;
71806;SDS011;59655;42.590;23.364;2024-03-17T04:31:02;32.70;;;14.82;;
71806;SDS011;59655;42.590;23.364;2024-03-17T04:33:29;30.92;;;15.05;;
71806;SDS011;59655;42.590;23.364;2024-03-17T04:35:54;37.00;;;15.45;;
71806;SDS011;59655;42.590;23.364;2024-03-17T04:38:20;23.13;;;12.27;;
71806;SDS011;59655;42.590;23.364;2024-03-17T04:40:45;26.52;;;14.30;;
71806;SDS011;59655;42.590;23.364;2024-03-17T04:43:11;32.47;;;14.27;;
71806;SDS011;59655;42.590;23.364;2024-03-17T04:45:36;34.53;;;15.27;;
71806;SDS011;59655;42.590;23.364;2024-03-17T04:48:02;33.25;;;14.75;;
71806;SDS011;59655;42.590;23.364;2024-03-17T04:50:28;31.60;;;14.05;;
71806;SDS011;59655;42.590;23.364;2024-03-17T04:52:57;29.00;;;13.82;;
71806;SDS011;59655;42.590;23.364;2024-03-17T04:55:23;30.67;;;14.70;;
71806;SDS011;59655;42.590;23.364;2024-03-17T04:57:48;25.23;;;13.18;;
71806;SDS011;59655;42.590;23.364;2024-03-17T05:00:14;23.83;;;12.27;;
71806;SDS011;59655;42.590;23.364;2024-03-17T05:02:40;21.65;;;11.02;;
71806;SDS011;59655;42.590;23.364;2024-03-17T05:05:06;21.52;;;11.13;;
71806;SDS011;59655;42.590;23.364;2024-03-17T05:07:33;20.52;;;11.32;;
71806;SDS011;59655;42.590;23.364;2024-03-17T05:09:59;21.17;;;11.25;;
71806;SDS011;59655;42.590;23.364;2024-03-17T05:12:24;22.35;;;10.75;;
71806;SDS011;59655;42.590;23.364;2024-03-17T05:14:49;21.90;;;10.93;;
71806;SDS011;59655;42.590;23.364;2024-03-17T05:17:15;23.08;;;12.00;;
71806;SDS011;59655;42.590;23.364;2024-03-17T05:19:40;20.55;;;12.23;;
71806;SDS011;59655;42.590;23.364;2024-03-17T05:22:05;21.70;;;10.82;;
71806;SDS011;59655;42.590;23.364;2024-03-17T05:24:31;23.77;;;12.38;;
71806;SDS011;59655;42.590;23.364;2024-03-17T05:26:56;25.30;;;15.27;;
71806;SDS011;59655;42.590;23.364;2024-03-17T05:29:21;25.75;;;13.50;;
71806;SDS011;59655;42.590;23.364;2024-03-17T05:31:47;21.35;;;11.55;;
71806;SDS011;59655;42.590;23.364;2024-03-17T05:34:13;20.77;;;11.27;;
71806;SDS011;59655;42.590;23.364;2024-03-17T05:36:38;27.77;;;11.90;;
71806;SDS011;59655;42.590;23.364;2024-03-17T05:39:04;23.13;;;12.88;;
71806;SDS011;59655;42.590;23.364;2024-03-17T05:41:29;24.23;;;14.25;;
71806;SDS011;59655;42.590;23.364;2024-03-17T05:43:54;25.42;;;13.93;;
71806;SDS011;59655;42.590;23.364;2024-03-17T05:46:23;24.65;;;13.98;;
71806;SDS011;59655;42.590;23.364;2024-03-17T05:48:51;27.13;;;14.52;;
71806;SDS011;59655;42.590;23.364;2024-03-17T05:51:16;25.60;;;14.43;;
71806;SDS011;59655;42.590;23.364;2024-03-17T05:53:42;25.15;;;14.80;;
71806;SDS011;59655;42.590;23.364;2024-03-17T05:58:40;45.72;;;22.40;;
71806;SDS011;59655;42.590;23.364;2024-03-17T06:01:06;33.00;;;17.13;;
71806;SDS011;59655;42.590;23.364;2024-03-17T06:03:36;32.22;;;16.27;;
71806;SDS011;59655;42.590;23.364;2024-03-17T06:06:02;34.72;;;19.05;;
71806;SDS011;59655;42.590;23.364;2024-03-17T06:08:28;27.90;;;16.60;;
71806;SDS011;59655;42.590;23.364;2024-03-17T06:10:54;31.00;;;17.13;;
71806;SDS011;59655;42.590;23.364;2024-03-17T06:13:21;24.50;;;15.93;;
71806;SDS011;59655;42.590;23.364;2024-03-17T06:15:47;28.08;;;15.63;;
71806;SDS011;59655;42.590;23.364;2024-03-17T06:18:13;26.63;;;14.63;;
71806;SDS011;59655;42.590;23.364;2024-03-17T06:20:42;25.90;;;14.88;;
71806;SDS011;59655;42.590;23.364;2024-03-17T06:23:09;23.83;;;13.50;;
71806;SDS011;59655;42.590;23.364;2024-03-17T06:28:07;22.85;;;13.43;;
71806;SDS011;59655;42.590;23.364;2024-03-17T06:30:34;23.90;;;12.70;;
71806;SDS011;59655;42.590;23.364;2024-03-17T06:33:01;24.33;;;12.80;;
71806;SDS011;59655;42.590;23.364;2024-03-17T06:35:26;24.48;;;13.13;;
71806;SDS011;59655;42.590;23.364;2024-03-17T06:37:52;23.95;;;12.75;;
71806;SDS011;59655;42.590;23.364;2024-03-17T06:40:17;23.55;;;12.60;;
71806;SDS011;59655;42.590;23.364;2024-03-17T06:42:43;23.92;;;13.85;;
71806;SDS011;59655;42.590;23.364;2024-03-17T06:45:09;22.35;;;12.50;;
71806;SDS011;59655;42.590;23.364;2024-03-17T06:47:34;23.95;;;13.25;;
71806;SDS011;59655;42.590;23.364;2024-03-17T06:50:01;23.40;;;12.70;;
71806;SDS011;59655;42.590;23.364;2024-03-17T06:52:28;24.63;;;13.48;;
71806;SDS011;59655;42.590;23.364;2024-03-17T06:54:53;25.38;;;12.65;;
71806;SDS011;59655;42.590;23.364;2024-03-17T06:57:19;26.90;;;13.88;;
71806;SDS011;59655;42.590;23.364;2024-03-17T06:59:44;27.33;;;13.07;;
71806;SDS011;59655;42.590;23.364;2024-03-17T07:02:11;28.63;;;14.32;;
71806;SDS011;59655;42.590;23.364;2024-03-17T07:04:40;28.35;;;15.13;;
71806;SDS011;59655;42.590;23.364;2024-03-17T07:07:06;26.75;;;14.95;;
71806;SDS011;59655;42.590;23.364;2024-03-17T07:09:31;27.60;;;14.57;;
71806;SDS011;59655;42.590;23.364;2024-03-17T07:11:56;23.25;;;13.77;;
71806;SDS011;59655;42.590;23.364;2024-03-17T07:14:22;25.90;;;13.63;;
71806;SDS011;59655;42.590;23.364;2024-03-17T07:16:47;27.17;;;14.80;;
71806;SDS011;59655;42.590;23.364;2024-03-17T07:19:13;27.63;;;15.18;;
71806;SDS011;59655;42.590;23.364;2024-03-17T07:21:38;25.30;;;13.20;;
71806;SDS011;59655;42.590;23.364;2024-03-17T07:24:04;25.15;;;13.88;;
71806;SDS011;59655;42.590;23.364;2024-03-17T07:26:30;28.08;;;13.77;;
71806;SDS011;59655;42.590;23.364;2024-03-17T07:28:55;23.90;;;13.30;;
71806;SDS011;59655;42.590;23.364;2024-03-17T07:31:21;24.30;;;12.73;;
71806;SDS011;59655;42.590;23.364;2024-03-17T07:33:46;26.85;;;13.45;;
71806;SDS011;59655;42.590;23.364;2024-03-17T07:36:13;26.13;;;13.90;;
71806;SDS011;59655;42.590;23.364;2024-03-17T07:38:38;31.83;;;14.13;;
71806;SDS011;59655;42.590;23.364;2024-03-17T07:41:04;23.23;;;13.13;;
71806;SDS011;59655;42.590;23.364;2024-03-17T07:43:32;27.63;;;14.13;;
71806;SDS011;59655;42.590;23.364;2024-03-17T07:46:06;28.63;;;14.38;;
71806;SDS011;59655;42.590;23.364;2024-03-17T07:48:35;28.77;;;14.45;;
71806;SDS011;59655;42.590;23.364;2024-03-17T07:51:05;27.90;;;15.32;;
71806;SDS011;59655;42.590;23.364;2024-03-17T07:53:33;25.85;;;12.68;;
71806;SDS011;59655;42.590;23.364;2024-03-17T07:56:00;25.17;;;13.07;;
71806;SDS011;59655;42.590;23.364;2024-03-17T07:58:34;30.90;;;13.13;;
71806;SDS011;59655;42.590;23.364;2024-03-17T08:01:01;23.30;;;13.23;;
71806;SDS011;59655;42.590;23.364;2024-03-17T08:03:31;26.98;;;14.55;;
71806;SDS011;59655;42.590;23.364;2024-03-17T08:05:58;28.95;;;14.30;;
71806;SDS011;59655;42.590;23.364;2024-03-17T08:08:24;25.00;;;13.88;;
71806;SDS011;59655;42.590;23.364;2024-03-17T08:10:50;27.90;;;14.93;;
71806;SDS011;59655;42.590;23.364;2024-03-17T08:13:18;24.02;;;13.88;;
71806;SDS011;59655;42.590;23.364;2024-03-17T08:15:44;26.00;;;12.55;;
71806;SDS011;59655;42.590;23.364;2024-03-17T08:18:13;26.02;;;13.70;;
71806;SDS011;59655;42.590;23.364;2024-03-17T08:20:38;24.00;;;13.60;;
71806;SDS011;59655;42.590;23.364;2024-03-17T08:23:05;25.92;;;14.93;;
71806;SDS011;59655;42.590;23.364;2024-03-17T08:25:31;26.30;;;13.82;;
71806;SDS011;59655;42.590;23.364;2024-03-17T08:27:57;28.48;;;14.00;;
71806;SDS011;59655;42.590;23.364;2024-03-17T08:30:22;26.05;;;14.77;;
71806;SDS011;59655;42.590;23.364;2024-03-17T08:32:47;23.90;;;13.73;;
71806;SDS011;59655;42.590;23.364;2024-03-17T08:35:13;26.80;;;13.82;;
71806;SDS011;59655;42.590;23.364;2024-03-17T08:37:38;27.90;;;13.88;;
71806;SDS011;59655;42.590;23.364;2024-03-17T08:40:03;24.90;;;13.10;;
71806;SDS011;59655;42.590;23.364;2024-03-17T08:42:31;28.95;;;14.52;;
71806;SDS011;59655;42.590;23.364;2024-03-17T08:44:57;25.85;;;15.13;;
71806;SDS011;59655;42.590;23.364;2024-03-17T08:47:22;26.50;;;14.85;;
71806;SDS011;59655;42.590;23.364;2024-03-17T08:49:50;26.38;;;14.40;;
71806;SDS011;59655;42.590;23.364;2024-03-17T08:52:16;27.13;;;14.93;;
71806;SDS011;59655;42.590;23.364;2024-03-17T08:54:45;29.50;;;15.77;;
71806;SDS011;59655;42.590;23.364;2024-03-17T08:57:11;27.70;;;14.50;;
71806;SDS011;59655;42.590;23.364;2024-03-17T08:59:37;26.15;;;13.57;;
71806;SDS011;59655;42.590;23.364;2024-03-17T09:02:02;27.48;;;14.77;;
71806;SDS011;59655;42.590;23.364;2024-03-17T09:04:28;30.15;;;13.88;;
71806;SDS011;59655;42.590;23.364;2024-03-17T09:06:54;24.25;;;14.82;;
71806;SDS011;59655;42.590;23.364;2024-03-17T09:09:21;24.77;;;12.73;;
71806;SDS011;59655;42.590;23.364;2024-03-17T09:11:47;22.30;;;12.45;;
71806;SDS011;59655;42.590;23.364;2024-03-17T09:14:12;25.58;;;13.55;;
71806;SDS011;59655;42.590;23.364;2024-03-17T09:16:37;25.50;;;14.13;;
71806;SDS011;59655;42.590;23.364;2024-03-17T09:19:03;27.05;;;13.93;;
71806;SDS011;59655;42.590;23.364;2024-03-17T09:21:28;24.63;;;13.35;;
71806;SDS011;59655;42.590;23.364;2024-03-17T09:23:53;27.42;;;13.18;;
71806;SDS011;59655;42.590;23.364;2024-03-17T09:26:19;27.17;;;13.57;;
71806;SDS011;59655;42.590;23.364;2024-03-17T09:28:44;24.17;;;13.10;;
71806;SDS011;59655;42.590;23.364;2024-03-17T09:31:10;23.48;;;12.25;;
71806;SDS011;59655;42.590;23.364;2024-03-17T09:33:36;19.42;;;11.90;;
71806;SDS011;59655;42.590;23.364;2024-03-17T09:36:03;17.73;;;10.10;;
71806;SDS011;59655;42.590;23.364;2024-03-17T09:38:33;20.30;;;10.57;;
71806;SDS011;59655;42.590;23.364;2024-03-17T09:41:00;12.85;;;7.65;;
71806;SDS011;59655;42.590;23.364;2024-03-17T09:43:27;14.10;;;7.10;;
71806;SDS011;59655;42.590;23.364;2024-03-17T09:45:53;14.25;;;7.63;;
71806;SDS011;59655;42.590;23.364;2024-03-17T09:48:22;7.00;;;4.70;;
71806;SDS011;59655;42.590;23.364;2024-03-17T09:50:56;8.38;;;4.63;;
71806;SDS011;59655;42.590;23.364;2024-03-17T09:55:52;10.63;;;6.25;;
71806;SDS011;59655;42.590;23.364;2024-03-17T09:58:21;8.10;;;4.43;;
71806;SDS011;59655;42.590;23.364;2024-03-17T10:00:46;7.57;;;3.92;;
71806;SDS011;59655;42.590;23.364;2024-03-17T10:03:12;6.93;;;4.03;;
71806;SDS011;59655;42.590;23.364;2024-03-17T10:06:00;10.68;;;4.20;;
71806;SDS011;59655;42.590;23.364;2024-03-17T10:08:26;6.28;;;2.80;;
71806;SDS011;59655;42.590;23.364;2024-03-17T10:10:54;5.60;;;2.83;;
71806;SDS011;59655;42.590;23.364;2024-03-17T10:15:48;5.70;;;3.27;;
71806;SDS011;59655;42.590;23.364;2024-03-17T10:18:33;6.43;;;3.50;;
71806;SDS011;59655;42.590;23.364;2024-03-17T10:20:58;6.45;;;3.10;;
71806;SDS011;59655;42.590;23.364;2024-03-17T10:23:25;4.18;;;2.38;;
71806;SDS011;59655;42.590;23.364;2024-03-17T10:25:52;6.35;;;2.10;;
71806;SDS011;59655;42.590;23.364;2024-03-17T10:28:17;6.35;;;2.42;;
71806;SDS011;59655;42.590;23.364;2024-03-17T10:30:58;5.47;;;3.05;;
71806;SDS011;59655;42.590;23.364;2024-03-17T10:33:24;5.43;;;2.92;;
71806;SDS011;59655;42.590;23.364;2024-03-17T10:35:50;6.95;;;3.10;;
71806;SDS011;59655;42.590;23.364;2024-03-17T10:38:23;6.97;;;3.00;;
71806;SDS011;59655;42.590;23.364;2024-03-17T10:40:49;6.15;;;3.65;;
71806;SDS011;59655;42.590;23.364;2024-03-17T10:43:14;4.40;;;2.80;;
71806;SDS011;59655;42.590;23.364;2024-03-17T10:45:41;6.40;;;3.22;;
71806;SDS011;59655;42.590;23.364;2024-03-17T10:48:08;8.63;;;5.00;;
71806;SDS011;59655;42.590;23.364;2024-03-17T10:50:37;7.28;;;4.07;;
71806;SDS011;59655;42.590;23.364;2024-03-17T10:53:04;7.18;;;4.20;;
71806;SDS011;59655;42.590;23.364;2024-03-17T10:55:55;9.15;;;5.93;;
71806;SDS011;59655;42.590;23.364;2024-03-17T10:58:35;5.55;;;3.95;;
71806;SDS011;59655;42.590;23.364;2024-03-17T11:01:11;8.27;;;4.53;;
71806;SDS011;59655;42.590;23.364;2024-03-17T11:03:38;8.57;;;3.80;;
71806;SDS011;59655;42.590;23.364;2024-03-17T11:06:03;11.10;;;4.22;;
71806;SDS011;59655;42.590;23.364;2024-03-17T11:08:30;6.90;;;4.05;;
71806;SDS011;59655;42.590;23.364;2024-03-17T11:11:00;6.78;;;3.75;;
71806;SDS011;59655;42.590;23.364;2024-03-17T11:13:26;8.80;;;4.50;;
71806;SDS011;59655;42.590;23.364;2024-03-17T11:15:53;8.65;;;4.30;;
71806;SDS011;59655;42.590;23.364;2024-03-17T11:20:56;9.30;;;4.23;;
71806;SDS011;59655;42.590;23.364;2024-03-17T11:23:28;6.20;;;3.80;;
71806;SDS011;59655;42.590;23.364;2024-03-17T11:25:55;7.35;;;4.03;;
71806;SDS011;59655;42.590;23.364;2024-03-17T11:34:01;5.50;;;3.35;;
71806;SDS011;59655;42.590;23.364;2024-03-17T11:38:54;8.30;;;3.65;;
71806;SDS011;59655;42.590;23.364;2024-03-17T11:49:30;10.10;;;4.82;;
71806;SDS011;59655;42.590;23.364;2024-03-17T11:51:57;7.35;;;4.78;;
71806;SDS011;59655;42.590;23.364;2024-03-17T11:54:28;8.05;;;4.45;;
71806;SDS011;59655;42.590;23.364;2024-03-17T11:57:04;7.32;;;4.72;;
71806;SDS011;59655;42.590;23.364;2024-03-17T11:59:31;6.75;;;4.30;;
71806;SDS011;59655;42.590;23.364;2024-03-17T12:01:58;6.28;;;4.22;;
71806;SDS011;59655;42.590;23.364;2024-03-17T12:04:24;9.95;;;5.05;;
71806;SDS011;59655;42.590;23.364;2024-03-17T12:06:50;7.50;;;4.57;;
71806;SDS011;59655;42.590;23.364;2024-03-17T12:09:24;8.52;;;4.57;;
71806;SDS011;59655;42.590;23.364;2024-03-17T12:12:08;8.32;;;5.30;;
71806;SDS011;59655;42.590;23.364;2024-03-17T12:14:38;14.13;;;5.85;;
71806;SDS011;59655;42.590;23.364;2024-03-17T12:17:05;7.60;;;4.40;;
71806;SDS011;59655;42.590;23.364;2024-03-17T12:19:32;7.85;;;3.65;;
71806;SDS011;59655;42.590;23.364;2024-03-17T12:21:58;6.63;;;3.42;;
71806;SDS011;59655;42.590;23.364;2024-03-17T12:24:28;9.20;;;3.95;;
71806;SDS011;59655;42.590;23.364;2024-03-17T12:26:55;6.15;;;3.25;;
71806;SDS011;59655;42.590;23.364;2024-03-17T12:29:42;6.18;;;3.03;;
71806;SDS011;59655;42.590;23.364;2024-03-17T12:34:55;9.35;;;4.13;;
71806;SDS011;59655;42.590;23.364;2024-03-17T12:37:25;7.88;;;4.13;;
71806;SDS011;59655;42.590;23.364;2024-03-17T12:39:57;6.70;;;4.00;;
71806;SDS011;59655;42.590;23.364;2024-03-17T12:42:25;7.82;;;3.75;;
71806;SDS011;59655;42.590;23.364;2024-03-17T12:44:55;7.78;;;4.10;;
71806;SDS011;59655;42.590;23.364;2024-03-17T12:47:25;7.47;;;3.95;;
71806;SDS011;59655;42.590;23.364;2024-03-17T12:52:22;6.15;;;3.90;;
71806;SDS011;59655;42.590;23.364;2024-03-17T12:55:03;7.05;;;3.63;;
71806;SDS011;59655;42.590;23.364;2024-03-17T12:57:49;5.57;;;3.50;;
71806;SDS011;59655;42.590;23.364;2024-03-17T13:00:34;6.18;;;3.72;;
71806;SDS011;59655;42.590;23.364;2024-03-17T13:03:03;6.93;;;4.45;;
71806;SDS011;59655;42.590;23.364;2024-03-17T13:05:30;8.85;;;4.65;;
71806;SDS011;59655;42.590;23.364;2024-03-17T13:07:56;6.90;;;4.40;;
71806;SDS011;59655;42.590;23.364;2024-03-17T13:10:22;7.82;;;4.60;;
71806;SDS011;59655;42.590;23.364;2024-03-17T13:12:57;8.07;;;4.70;;
71806;SDS011;59655;42.590;23.364;2024-03-17T13:15:27;9.70;;;4.80;;
71806;SDS011;59655;42.590;23.364;2024-03-17T13:17:53;8.27;;;4.80;;
71806;SDS011;59655;42.590;23.364;2024-03-17T13:20:19;7.05;;;4.32;;
71806;SDS011;59655;42.590;23.364;2024-03-17T13:22:44;7.55;;;4.82;;
71806;SDS011;59655;42.590;23.364;2024-03-17T13:25:17;9.27;;;5.70;;
71806;SDS011;59655;42.590;23.364;2024-03-17T13:27:46;8.60;;;5.28;;
71806;SDS011;59655;42.590;23.364;2024-03-17T13:30:12;8.15;;;5.30;;
71806;SDS011;59655;42.590;23.364;2024-03-17T13:32:39;8.45;;;5.30;;
71806;SDS011;59655;42.590;23.364;2024-03-17T13:35:05;8.38;;;4.80;;
71806;SDS011;59655;42.590;23.364;2024-03-17T13:37:33;8.35;;;4.95;;
71806;SDS011;59655;42.590;23.364;2024-03-17T13:39:59;7.90;;;5.05;;
71806;SDS011;59655;42.590;23.364;2024-03-17T13:42:27;8.80;;;5.15;;
71806;SDS011;59655;42.590;23.364;2024-03-17T13:44:53;7.53;;;5.00;;
71806;SDS011;59655;42.590;23.364;2024-03-17T13:47:18;8.15;;;5.15;;
71806;SDS011;59655;42.590;23.364;2024-03-17T13:49:43;8.10;;;4.97;;
71806;SDS011;59655;42.590;23.364;2024-03-17T13:52:09;11.23;;;5.97;;
71806;SDS011;59655;42.590;23.364;2024-03-17T13:54:34;9.35;;;5.55;;
71806;SDS011;59655;42.590;23.364;2024-03-17T13:56:59;8.35;;;5.47;;
71806;SDS011;59655;42.590;23.364;2024-03-17T13:59:27;9.32;;;6.13;;
71806;SDS011;59655;42.590;23.364;2024-03-17T14:01:52;8.63;;;5.50;;
71806;SDS011;59655;42.590;23.364;2024-03-17T14:04:18;10.32;;;6.03;;
71806;SDS011;59655;42.590;23.364;2024-03-17T14:06:47;10.38;;;6.35;;
71806;SDS011;59655;42.590;23.364;2024-03-17T14:09:15;9.52;;;6.07;;
71806;SDS011;59655;42.590;23.364;2024-03-17T14:11:44;11.50;;;6.32;;
71806;SDS011;59655;42.590;23.364;2024-03-17T14:14:10;10.57;;;6.13;;
71806;SDS011;59655;42.590;23.364;2024-03-17T14:16:37;10.48;;;6.28;;
71806;SDS011;59655;42.590;23.364;2024-03-17T14:19:02;12.68;;;6.30;;
71806;SDS011;59655;42.590;23.364;2024-03-17T14:21:28;10.38;;;6.20;;
71806;SDS011;59655;42.590;23.364;2024-03-17T14:23:54;10.25;;;6.22;;
71806;SDS011;59655;42.590;23.364;2024-03-17T14:26:20;11.07;;;7.05;;
71806;SDS011;59655;42.590;23.364;2024-03-17T14:28:46;9.73;;;6.63;;
71806;SDS011;59655;42.590;23.364;2024-03-17T14:31:11;12.20;;;5.75;;
71806;SDS011;59655;42.590;23.364;2024-03-17T14:33:37;10.45;;;6.10;;
71806;SDS011;59655;42.590;23.364;2024-03-17T14:36:02;10.77;;;6.40;;
71806;SDS011;59655;42.590;23.364;2024-03-17T14:38:28;10.18;;;6.32;;
71806;SDS011;59655;42.590;23.364;2024-03-17T14:40:53;9.63;;;5.82;;
71806;SDS011;59655;42.590;23.364;2024-03-17T14:43:19;10.85;;;6.05;;
71806;SDS011;59655;42.590;23.364;2024-03-17T14:45:45;9.68;;;6.50;;
71806;SDS011;59655;42.590;23.364;2024-03-17T14:48:11;10.20;;;6.43;;
71806;SDS011;59655;42.590;23.364;2024-03-17T14:50:38;13.23;;;6.35;;
71806;SDS011;59655;42.590;23.364;2024-03-17T14:53:04;9.50;;;5.78;;